createdAt,value
2023-04-01T00:02:10.547Z,84.50
2023-04-01T00:05:12.406Z,84.45
2023-04-01T00:08:14.392Z,84.23
2023-04-01T00:11:16.952Z,85.03
2023-04-01T00:14:18.698Z,84.94
2023-04-01T00:17:20.382Z,84.35
2023-04-01T00:20:22.787Z,85.14
2023-04-01T00:23:24.450Z,85.04
2023-04-01T00:26:27.558Z,84.97
2023-04-01T00:29:31.506Z,85.57
2023-04-01T00:32:33.221Z,84.74
2023-04-01T00:35:35.743Z,84.79
2023-04-01T00:38:38.933Z,84.50
2023-04-01T00:41:41.229Z,85.15
2023-04-01T00:44:43.487Z,84.85
2023-04-01T00:47:45.314Z,84.74
2023-04-01T00:50:53.391Z,84.23
2023-04-01T00:53:57.983Z,84.09
2023-04-01T00:57:05.036Z,84.10
2023-04-01T01:00:10.976Z,84.20
2023-04-01T01:03:14.194Z,83.93
2023-04-01T01:06:41.944Z,83.47
2023-04-01T01:09:56.394Z,83.52
2023-04-01T01:13:48.605Z,83.73
2023-04-01T01:17:02.329Z,83.66
2023-04-01T01:20:34.330Z,83.67
2023-04-01T01:23:58.641Z,84.09
2023-04-01T01:27:07.979Z,83.73
2023-04-01T01:30:16.517Z,83.85
2023-04-01T01:33:48.761Z,83.45
2023-04-01T01:36:57.413Z,83.45
2023-04-01T01:40:08.593Z,83.86
2023-04-01T01:43:17.407Z,83.44
2023-04-01T01:46:23.678Z,83.72
2023-04-01T01:49:26.425Z,83.56
2023-04-01T01:52:32.012Z,83.45
2023-04-01T01:55:36.901Z,83.48
2023-04-01T01:58:59.772Z,83.82
2023-04-01T02:02:26.832Z,83.64
2023-04-01T02:05:31.881Z,84.19
2023-04-01T02:08:52.330Z,84.55
2023-04-01T02:11:58.447Z,84.54
2023-04-01T02:15:13.395Z,84.67
2023-04-01T02:18:17.036Z,84.32
2023-04-01T02:21:21.832Z,84.52
2023-04-01T02:24:25.795Z,84.68
2023-04-01T02:27:27.512Z,84.62
2023-04-01T02:30:32.795Z,83.88
2023-04-01T02:33:34.944Z,84.73
2023-04-01T02:36:39.036Z,84.70
2023-04-01T02:39:44.078Z,84.58
2023-04-01T02:42:47.104Z,84.64
2023-04-01T02:45:55.387Z,84.49
2023-04-01T02:48:59.092Z,84.48
2023-04-01T02:52:02.702Z,84.93
2023-04-01T02:55:07.080Z,84.86
2023-04-01T02:58:12.713Z,84.80
2023-04-01T03:01:15.880Z,84.85
2023-04-01T03:04:17.502Z,84.85
2023-04-01T03:07:19.117Z,84.58
2023-04-01T03:10:21.305Z,84.92
2023-04-01T03:13:22.973Z,85.00
2023-04-01T03:16:24.627Z,84.47
2023-04-01T03:19:26.537Z,84.94
2023-04-01T03:22:28.137Z,84.80
2023-04-01T03:25:31.798Z,84.79
2023-04-01T03:28:33.990Z,84.50
2023-04-01T03:31:36.352Z,84.75
2023-04-01T03:34:40.086Z,84.88
2023-04-01T03:37:41.946Z,85.00
2023-04-01T03:40:44.358Z,84.87
2023-04-01T03:43:46.563Z,84.87
2023-04-01T03:46:48.229Z,84.91
2023-04-01T03:49:50.726Z,84.88
2023-04-01T03:52:52.510Z,85.12
2023-04-01T03:55:54.680Z,85.14
2023-04-01T03:58:56.344Z,85.22
2023-04-01T04:01:58.137Z,84.99
2023-04-01T04:04:59.724Z,85.63
2023-04-01T04:08:04.100Z,85.42
2023-04-01T04:11:06.978Z,85.84
2023-04-01T04:14:12.482Z,86.38
2023-04-01T04:17:17.186Z,86.42
2023-04-01T04:20:19.381Z,86.07
2023-04-01T04:23:21.294Z,86.72
2023-04-01T04:26:23.072Z,87.34
2023-04-01T04:29:33.516Z,88.43
2023-04-01T04:32:36.426Z,89.47
2023-04-01T04:35:38.734Z,89.18
2023-04-01T04:38:40.656Z,89.58
2023-04-01T04:41:42.671Z,90.13
2023-04-01T04:44:44.987Z,89.92
2023-04-01T04:47:47.236Z,90.21
2023-04-01T04:50:51.439Z,90.04
2023-04-01T04:53:54.836Z,89.75
2023-04-01T04:57:05.694Z,89.10
2023-04-01T05:00:14.377Z,89.52
2023-04-01T05:03:27.947Z,88.93
2023-04-01T05:06:30.567Z,88.83
2023-04-01T05:09:33.146Z,88.24
2023-04-01T05:12:38.340Z,88.21
2023-04-01T05:15:43.426Z,88.44
2023-04-01T05:18:47.460Z,87.67
2023-04-01T05:21:51.045Z,88.01
2023-04-01T05:24:52.749Z,87.87
2023-04-01T05:27:54.670Z,86.97
2023-04-01T05:30:58.950Z,87.20
2023-04-01T05:34:04.990Z,87.05
2023-04-01T05:37:08.252Z,86.84
2023-04-01T05:40:10.357Z,86.32
2023-04-01T05:43:12.390Z,86.29
2023-04-01T05:46:14.840Z,86.42
2023-04-01T05:49:26.951Z,86.57
2023-04-01T05:52:29.954Z,86.27
2023-04-01T05:55:31.920Z,86.11
2023-04-01T05:58:33.755Z,85.75
2023-04-01T06:01:35.755Z,85.58
2023-04-01T06:04:41.957Z,85.68
2023-04-01T06:07:46.039Z,85.46
2023-04-01T06:11:24.681Z,85.31
2023-04-01T06:14:33.396Z,85.72
2023-04-01T06:18:03.275Z,85.58
2023-04-01T06:21:45.951Z,85.21
2023-04-01T06:25:14.344Z,85.00
2023-04-01T06:28:49.519Z,85.31
2023-04-01T06:31:54.425Z,84.25
2023-04-01T06:35:20.771Z,83.58
2023-04-01T06:39:01.452Z,82.77
2023-04-01T06:42:25.599Z,82.33
2023-04-01T06:45:37.513Z,82.15
2023-04-01T06:49:32.406Z,81.80
2023-04-01T06:53:31.450Z,81.70
2023-04-01T06:56:53.753Z,80.82
2023-04-01T07:00:01.495Z,81.07
2023-04-01T07:03:34.093Z,80.21
2023-04-01T07:06:53.530Z,80.52
2023-04-01T07:10:00.312Z,79.56
2023-04-01T07:13:17.678Z,81.09
2023-04-01T07:16:35.722Z,79.97
2023-04-01T07:19:55.033Z,79.05
2023-04-01T07:23:00.795Z,79.18
2023-04-01T07:26:25.593Z,78.94
2023-04-01T07:29:49.897Z,77.62
2023-04-01T07:33:28.415Z,76.78
2023-04-01T07:37:07.675Z,77.56
2023-04-01T07:40:47.733Z,77.08
2023-04-01T07:43:55.425Z,77.10
2023-04-01T07:47:08.343Z,76.61
2023-04-01T07:50:33.679Z,75.92
2023-04-01T07:53:55.280Z,75.54
2023-04-01T07:57:06.990Z,75.37
2023-04-01T08:00:40.687Z,75.85
2023-04-01T08:04:05.385Z,74.89
2023-04-01T08:07:37.751Z,74.68
2023-04-01T08:11:38.372Z,73.66
2023-04-01T08:15:02.070Z,73.25
2023-04-01T08:18:46.047Z,73.44
2023-04-01T08:21:58.526Z,72.93
2023-04-01T08:25:07.600Z,73.35
2023-04-01T08:28:19.050Z,73.28
2023-04-01T08:31:53.317Z,73.51
2023-04-01T08:35:22.223Z,72.96
2023-04-01T08:38:44.222Z,72.84
2023-04-01T08:41:55.509Z,71.54
2023-04-01T08:45:26.667Z,72.05
2023-04-01T08:48:44.516Z,71.71
2023-04-01T08:52:33.473Z,71.84
2023-04-01T08:55:55.625Z,70.90
2023-04-01T08:59:45.367Z,69.82
2023-04-01T09:03:45.360Z,70.20
2023-04-01T09:07:09.923Z,69.84
2023-04-01T09:10:46.681Z,69.39
2023-04-01T09:14:36.896Z,69.31
2023-04-01T09:18:12.980Z,70.34
2023-04-01T09:21:38.481Z,69.60
2023-04-01T09:25:19.752Z,67.79
2023-04-01T09:28:59.664Z,68.37
2023-04-01T09:32:33.740Z,69.05
2023-04-01T09:36:11.844Z,69.16
2023-04-01T09:40:03.209Z,68.83
2023-04-01T09:43:29.207Z,67.00
2023-04-01T09:47:07.765Z,68.71
2023-04-01T09:50:48.120Z,69.09
2023-04-01T09:54:20.755Z,69.15
2023-04-01T09:58:01.399Z,69.36
2023-04-01T10:01:53.726Z,69.89
2023-04-01T10:05:27.756Z,69.96
2023-04-01T10:08:57.633Z,69.55
2023-04-01T10:12:17.694Z,68.90
2023-04-01T10:15:26.750Z,69.31
2023-04-01T10:18:41.059Z,71.50
2023-04-01T10:22:19.140Z,72.37
2023-04-01T10:25:32.024Z,74.08
2023-04-01T10:29:06.089Z,74.86
2023-04-01T10:33:07.860Z,75.31
2023-04-01T10:36:36.470Z,76.99
2023-04-01T10:40:16.206Z,76.67
2023-04-01T10:43:58.130Z,78.73
2023-04-01T10:47:18.504Z,79.05
2023-04-01T10:50:41.269Z,81.52
2023-04-01T10:54:06.537Z,81.34
2023-04-01T10:58:31.554Z,82.03
2023-04-01T11:02:27.612Z,82.97
2023-04-01T11:06:10.250Z,84.04
2023-04-01T11:09:39.286Z,84.27
2023-04-01T11:13:09.238Z,84.77
2023-04-01T11:16:21.390Z,85.89
2023-04-01T11:20:09.427Z,86.13
2023-04-01T11:24:07.119Z,87.33
2023-04-01T11:27:50.618Z,87.76
2023-04-01T11:31:10.656Z,90.33
2023-04-01T11:34:52.389Z,89.99
2023-04-01T11:38:29.327Z,90.31
2023-04-01T11:41:33.433Z,88.76
2023-04-01T11:45:12.254Z,90.49
2023-04-01T11:48:18.385Z,90.72
2023-04-01T11:52:06.850Z,92.36
2023-04-01T11:55:55.265Z,91.67
2023-04-01T11:59:36.296Z,90.61
2023-04-01T12:03:16.211Z,91.43
2023-04-01T12:07:04.496Z,89.43
2023-04-01T12:10:28.351Z,90.66
2023-04-01T12:13:48.376Z,91.10
2023-04-01T12:17:29.945Z,90.50
2023-04-01T12:21:01.853Z,90.61
2023-04-01T12:24:10.014Z,92.57
2023-04-01T12:27:22.523Z,90.13
2023-04-01T12:30:48.995Z,91.02
2023-04-01T12:34:28.562Z,90.07
2023-04-01T12:37:37.179Z,89.29
2023-04-01T12:40:57.578Z,89.11
2023-04-01T12:44:39.564Z,89.48
2023-04-01T12:48:06.118Z,89.03
2023-04-01T12:51:20.269Z,91.15
2023-04-01T12:54:48.370Z,92.31
2023-04-01T12:57:59.674Z,93.19
2023-04-01T13:01:17.438Z,92.06
2023-04-01T13:04:56.087Z,93.72
2023-04-01T13:08:07.281Z,94.99
2023-04-01T13:11:24.239Z,94.38
2023-04-01T13:14:38.447Z,93.55
2023-04-01T13:18:01.812Z,93.39
2023-04-01T13:21:34.128Z,94.41
2023-04-01T13:24:52.748Z,92.40
2023-04-01T13:28:10.430Z,92.87
2023-04-01T13:31:32.341Z,92.91
2023-04-01T13:34:57.211Z,92.04
2023-04-01T13:38:14.592Z,91.51
2023-04-01T13:41:26.696Z,90.52
2023-04-01T13:44:54.547Z,88.83
2023-04-01T13:48:18.540Z,88.90
2023-04-01T13:51:45.903Z,88.89
2023-04-01T13:55:06.611Z,86.59
2023-04-01T13:58:40.149Z,87.11
2023-04-01T14:02:27.066Z,85.89
2023-04-01T14:05:45.654Z,83.50
2023-04-01T14:09:22.374Z,84.05
2023-04-01T14:12:46.179Z,84.02
2023-04-01T14:15:57.317Z,83.84
2023-04-01T14:19:18.523Z,84.28
2023-04-01T14:22:48.715Z,83.29
2023-04-01T14:26:29.519Z,85.21
2023-04-01T14:30:11.120Z,86.16
2023-04-01T14:33:41.958Z,85.92
2023-04-01T14:37:38.324Z,86.49
2023-04-01T14:41:11.734Z,86.49
2023-04-01T14:45:01.445Z,86.29
2023-04-01T14:48:25.374Z,87.50
2023-04-01T14:51:40.367Z,86.92
2023-04-01T14:54:46.222Z,85.24
2023-04-01T14:58:06.138Z,86.62
2023-04-01T15:01:33.692Z,85.49
2023-04-01T15:05:29.835Z,85.60
2023-04-01T15:08:45.939Z,85.24
2023-04-01T15:12:06.443Z,84.05
2023-04-01T15:15:36.484Z,81.81
2023-04-01T15:18:54.993Z,79.19
2023-04-01T15:22:25.630Z,79.71
2023-04-01T15:26:03.569Z,79.25
2023-04-01T15:29:34.435Z,78.15
2023-04-01T15:32:47.129Z,78.66
2023-04-01T15:36:06.332Z,78.31
2023-04-01T15:39:20.609Z,78.19
2023-04-01T15:42:29.998Z,78.42
2023-04-01T15:45:57.847Z,77.53
2023-04-01T15:49:40.183Z,77.07
2023-04-01T15:52:42.129Z,77.11
2023-04-01T15:56:08.790Z,76.42
2023-04-01T15:59:31.024Z,78.14
2023-04-01T16:03:09.042Z,77.40
2023-04-01T16:06:11.202Z,76.59
2023-04-01T16:09:40.908Z,76.81
2023-04-01T16:13:03.433Z,76.17
2023-04-01T16:16:24.835Z,76.93
2023-04-01T16:19:46.105Z,76.42
2023-04-01T16:23:05.357Z,75.93
2023-04-01T16:26:20.520Z,76.75
2023-04-01T16:29:53.949Z,76.54
2023-04-01T16:33:23.637Z,76.98
2023-04-01T16:36:44.656Z,76.99
2023-04-01T16:40:24.341Z,77.08
2023-04-01T16:43:55.795Z,77.17
2023-04-01T16:47:08.589Z,77.62
2023-04-01T16:50:15.012Z,77.91
2023-04-01T16:53:37.639Z,77.56
2023-04-01T16:56:55.786Z,78.38
2023-04-01T17:00:36.479Z,78.96
2023-04-01T17:03:44.893Z,78.36
2023-04-01T17:07:21.566Z,78.81
2023-04-01T17:10:45.051Z,78.68
2023-04-01T17:14:02.168Z,79.03
2023-04-01T17:17:11.994Z,78.62
2023-04-01T17:20:38.660Z,78.67
2023-04-01T17:23:51.966Z,78.36
2023-04-01T17:27:11.892Z,78.27
2023-04-01T17:30:36.761Z,77.71
2023-04-01T17:34:03.114Z,78.84
2023-04-01T17:37:23.296Z,78.37
2023-04-01T17:40:30.870Z,78.75
2023-04-01T17:43:54.053Z,78.55
2023-04-01T17:47:12.374Z,78.86
2023-04-01T17:50:21.964Z,79.11
2023-04-01T17:53:59.992Z,78.60
2023-04-01T17:57:27.692Z,79.21
2023-04-01T18:00:55.873Z,79.08
2023-04-01T18:04:27.087Z,79.34
2023-04-01T18:07:50.302Z,79.70
2023-04-01T18:11:17.151Z,80.05
2023-04-01T18:14:42.907Z,79.46
2023-04-01T18:17:57.760Z,79.57
2023-04-01T18:21:19.992Z,79.78
2023-04-01T18:24:31.534Z,79.83
2023-04-01T18:27:39.748Z,79.73
2023-04-01T18:30:41.716Z,79.19
2023-04-01T18:34:09.022Z,79.82
2023-04-01T18:37:33.388Z,79.38
2023-04-01T18:40:35.185Z,79.44
2023-04-01T18:44:28.665Z,79.48
2023-04-01T18:47:47.989Z,80.11
2023-04-01T18:51:47.344Z,78.99
2023-04-01T18:55:26.369Z,79.09
2023-04-01T18:58:46.502Z,78.78
2023-04-01T19:02:08.179Z,78.36
2023-04-01T19:05:15.285Z,78.09
2023-04-01T19:08:33.481Z,77.86
2023-04-01T19:11:56.320Z,78.40
2023-04-01T19:15:36.167Z,78.82
2023-04-01T19:18:54.099Z,78.25
2023-04-01T19:21:59.257Z,78.86
2023-04-01T19:25:25.887Z,78.93
2023-04-01T19:28:38.686Z,79.32
2023-04-01T19:32:10.978Z,79.28
2023-04-01T19:35:38.065Z,79.73
2023-04-01T19:38:41.450Z,79.99
2023-04-01T19:42:07.029Z,80.68
2023-04-01T19:45:47.547Z,80.46
2023-04-01T19:49:05.421Z,80.17
2023-04-01T19:52:19.205Z,80.18
2023-04-01T19:56:02.273Z,80.34
2023-04-01T19:59:19.970Z,80.73
2023-04-01T20:02:55.086Z,80.08
2023-04-01T20:06:07.311Z,80.69
2023-04-01T20:09:52.101Z,80.74
2023-04-01T20:13:27.320Z,80.12
2023-04-01T20:17:07.373Z,80.20
2023-04-01T20:20:11.749Z,80.48
2023-04-01T20:23:54.410Z,80.96
2023-04-01T20:27:08.750Z,80.97
2023-04-01T20:30:37.774Z,80.98
2023-04-01T20:34:37.063Z,81.04
2023-04-01T20:37:41.422Z,81.02
2023-04-01T20:40:50.599Z,81.29
2023-04-01T20:44:12.002Z,80.90
2023-04-01T20:47:35.497Z,80.96
2023-04-01T20:50:50.242Z,81.34
2023-04-01T20:53:59.702Z,81.72
2023-04-01T20:57:17.940Z,81.99
2023-04-01T21:00:37.885Z,82.23
2023-04-01T21:04:01.608Z,82.25
2023-04-01T21:07:46.503Z,82.14
2023-04-01T21:10:55.890Z,82.31
2023-04-01T21:14:17.409Z,82.46
2023-04-01T21:17:38.130Z,82.73
2023-04-01T21:21:17.057Z,82.96
2023-04-01T21:24:43.959Z,82.58
2023-04-01T21:28:00.136Z,82.88
2023-04-01T21:31:06.108Z,82.45
2023-04-01T21:34:26.901Z,82.91
2023-04-01T21:37:42.850Z,82.68
2023-04-01T21:41:19.992Z,83.41
2023-04-01T21:44:38.138Z,83.08
2023-04-01T21:48:06.301Z,83.04
2023-04-01T21:51:19.851Z,83.24
2023-04-01T21:54:39.459Z,82.56
2023-04-01T21:58:19.390Z,83.36
2023-04-01T22:01:53.086Z,83.95
2023-04-01T22:05:06.347Z,83.59
2023-04-01T22:08:38.867Z,83.75
2023-04-01T22:11:45.833Z,84.02
2023-04-01T22:14:54.163Z,84.40
2023-04-01T22:18:19.174Z,84.57
2023-04-01T22:21:52.926Z,84.90
2023-04-01T22:25:21.891Z,84.86
2023-04-01T22:28:30.611Z,84.89
2023-04-01T22:31:48.836Z,85.24
2023-04-01T22:35:18.573Z,85.46
2023-04-01T22:38:48.396Z,85.34
2023-04-01T22:42:42.898Z,85.72
2023-04-01T22:46:13.990Z,85.62
2023-04-01T22:49:18.270Z,85.48
2023-04-01T22:52:28.975Z,86.11
2023-04-01T22:55:35.149Z,86.00
2023-04-01T22:58:47.601Z,85.61
2023-04-01T23:01:57.381Z,85.63
2023-04-01T23:05:03.726Z,85.72
2023-04-01T23:08:50.574Z,85.79
2023-04-01T23:11:52.854Z,85.62
2023-04-01T23:14:59.519Z,85.38
2023-04-01T23:18:16.100Z,85.74
2023-04-01T23:21:52.874Z,85.59
2023-04-01T23:25:01.748Z,85.75
2023-04-01T23:28:15.411Z,85.61
2023-04-01T23:31:34.189Z,85.39
2023-04-01T23:34:36.639Z,85.41
2023-04-01T23:37:38.458Z,85.55
2023-04-01T23:40:41.475Z,85.63
2023-04-01T23:43:46.331Z,84.71
2023-04-01T23:46:49.836Z,85.22
2023-04-01T23:49:57.643Z,85.24
2023-04-01T23:53:29.175Z,85.04
2023-04-01T23:57:05.705Z,84.96
